createdAt,value
2019-03-05T00:01:56.225Z,8.83
2019-03-05T00:04:24.898Z,8.03
2019-03-05T00:06:53.575Z,8.30
2019-03-05T00:09:22.344Z,8.43
2019-03-05T00:11:51.009Z,7.43
2019-03-05T00:14:21.292Z,9.90
2019-03-05T00:16:49.944Z,8.67
2019-03-05T00:19:18.609Z,8.50
2019-03-05T00:21:47.280Z,7.97
2019-03-05T00:24:51.900Z,8.03
2019-03-05T00:27:21.974Z,7.17
2019-03-05T00:30:12.922Z,7.73
2019-03-05T00:32:44.213Z,8.07
2019-03-05T00:35:27.514Z,7.80
2019-03-05T00:38:01.999Z,7.70
2019-03-05T00:40:36.525Z,6.47
2019-03-05T00:43:11.181Z,6.60
2019-03-05T00:45:54.560Z,6.33
2019-03-05T00:48:45.815Z,6.37
2019-03-05T00:51:36.580Z,6.97
2019-03-05T00:54:19.892Z,6.23
2019-03-05T00:57:09.690Z,6.80
2019-03-05T00:59:57.391Z,7.13
2019-03-05T01:02:34.548Z,7.03
2019-03-05T01:05:25.515Z,5.93
2019-03-05T01:07:54.511Z,6.30
2019-03-05T01:10:23.687Z,7.60
2019-03-05T01:12:52.499Z,7.23
2019-03-05T01:15:21.267Z,6.83
2019-03-05T01:17:49.946Z,7.27
2019-03-05T01:20:18.610Z,7.13
2019-03-05T01:22:47.277Z,6.53
2019-03-05T01:25:33.509Z,6.80
2019-03-05T01:28:02.380Z,7.70
2019-03-05T01:30:38.281Z,7.47
2019-03-05T01:33:08.907Z,7.37
2019-03-05T01:35:39.166Z,7.13
2019-03-05T01:38:07.833Z,7.53
2019-03-05T01:40:37.403Z,7.43
2019-03-05T01:43:06.064Z,6.60
2019-03-05T01:45:34.727Z,6.73
2019-03-05T01:48:03.400Z,7.23
2019-03-05T01:50:32.064Z,7.00
2019-03-05T01:53:00.739Z,6.70
2019-03-05T01:55:29.458Z,7.13
2019-03-05T01:57:58.125Z,6.90
2019-03-05T02:00:27.094Z,6.07
2019-03-05T02:02:55.778Z,6.83
2019-03-05T02:05:24.447Z,6.93
2019-03-05T02:07:54.016Z,6.90
2019-03-05T02:10:23.008Z,6.70
2019-03-05T02:12:51.680Z,6.53
2019-03-05T02:15:22.864Z,6.50
2019-03-05T02:17:51.543Z,5.87
2019-03-05T02:20:24.916Z,5.53
2019-03-05T02:23:02.389Z,6.00
2019-03-05T02:25:33.975Z,5.83
2019-03-05T02:28:36.724Z,5.90
2019-03-05T02:31:26.568Z,6.43
2019-03-05T02:34:12.963Z,6.03
2019-03-05T02:37:09.911Z,6.20
2019-03-05T02:39:53.515Z,6.30
2019-03-05T02:42:33.803Z,5.97
2019-03-05T02:45:23.349Z,5.27
2019-03-05T02:48:22.287Z,5.60
2019-03-05T02:51:16.121Z,5.37
2019-03-05T02:53:53.754Z,5.60
2019-03-05T02:56:34.107Z,5.80
2019-03-05T02:59:01.465Z,6.83
2019-03-05T03:01:31.710Z,8.57
2019-03-05T03:04:01.944Z,6.63
2019-03-05T03:06:31.130Z,5.67
2019-03-05T03:09:25.314Z,5.23
2019-03-05T03:11:53.984Z,6.37
2019-03-05T03:14:22.660Z,5.53
2019-03-05T03:16:51.327Z,6.30
2019-03-05T03:19:19.987Z,6.10
2019-03-05T03:21:48.674Z,6.17
2019-03-05T03:24:17.339Z,6.00
2019-03-05T03:26:46.019Z,6.10
2019-03-05T03:29:14.686Z,6.63
2019-03-05T03:31:43.362Z,6.83
2019-03-05T03:34:12.142Z,6.40
2019-03-05T03:36:40.808Z,6.37
2019-03-05T03:39:09.621Z,6.10
2019-03-05T03:41:38.263Z,6.27
2019-03-05T03:44:06.937Z,6.93
2019-03-05T03:46:35.599Z,6.77
2019-03-05T03:49:04.287Z,6.90
2019-03-05T03:51:32.980Z,6.63
2019-03-05T03:54:01.686Z,6.47
2019-03-05T03:56:30.363Z,6.47
2019-03-05T03:58:59.047Z,6.37
2019-03-05T04:01:27.707Z,6.53
2019-03-05T04:03:56.506Z,6.50
2019-03-05T04:06:25.182Z,7.37
2019-03-05T04:08:53.852Z,7.13
2019-03-05T04:11:22.639Z,6.27
2019-03-05T04:13:51.301Z,6.40
2019-03-05T04:16:19.998Z,6.53
2019-03-05T04:18:48.698Z,6.40
2019-03-05T04:21:19.931Z,7.73
2019-03-05T04:23:47.769Z,6.40
2019-03-05T04:26:16.431Z,8.73
2019-03-05T04:28:45.098Z,8.13
2019-03-05T04:31:13.779Z,7.13
2019-03-05T04:33:42.448Z,7.47
2019-03-05T04:36:11.130Z,6.63
2019-03-05T04:38:39.795Z,6.67
2019-03-05T04:41:08.476Z,6.73
2019-03-05T04:43:37.143Z,6.33
2019-03-05T04:46:10.216Z,6.40
2019-03-05T04:48:38.879Z,6.00
2019-03-05T04:51:11.810Z,6.70
2019-03-05T04:53:40.478Z,6.50
2019-03-05T04:56:09.139Z,6.60
2019-03-05T04:58:37.896Z,6.37
2019-03-05T05:01:06.568Z,7.00
2019-03-05T05:03:35.234Z,7.13
2019-03-05T05:06:03.915Z,6.93
2019-03-05T05:08:32.579Z,6.87
2019-03-05T05:11:01.244Z,6.40
2019-03-05T05:13:29.906Z,6.43
2019-03-05T05:15:58.573Z,6.70
2019-03-05T05:18:27.270Z,5.97
2019-03-05T05:20:55.944Z,6.07
2019-03-05T05:23:24.641Z,6.80
2019-03-05T05:25:53.303Z,6.30
2019-03-05T05:28:21.966Z,7.20
2019-03-05T05:30:50.643Z,6.73
2019-03-05T05:33:19.329Z,9.93
2019-03-05T05:35:47.991Z,8.50
2019-03-05T05:38:16.677Z,7.80
2019-03-05T05:40:47.441Z,10.97
2019-03-05T05:43:22.005Z,8.73
2019-03-05T05:45:52.480Z,8.60
2019-03-05T05:48:21.159Z,8.93
2019-03-05T05:50:49.829Z,8.00
2019-03-05T05:53:18.529Z,7.87
2019-03-05T05:55:48.002Z,7.53
2019-03-05T05:58:16.809Z,6.83
2019-03-05T06:00:50.018Z,6.47
2019-03-05T06:03:18.685Z,6.97
2019-03-05T06:05:47.371Z,6.43
2019-03-05T06:08:16.115Z,6.77
2019-03-05T06:10:44.897Z,6.63
2019-03-05T06:13:13.563Z,7.30
2019-03-05T06:15:42.229Z,7.80
2019-03-05T06:18:11.114Z,8.43
2019-03-05T06:20:42.429Z,8.20
2019-03-05T06:23:10.317Z,8.10
2019-03-05T06:25:40.452Z,8.50
2019-03-05T06:28:09.129Z,8.77
2019-03-05T06:30:40.117Z,10.17
2019-03-05T06:33:08.787Z,9.63
2019-03-05T06:35:37.479Z,8.37
2019-03-05T06:38:06.130Z,8.40
2019-03-05T06:40:34.829Z,14.00
2019-03-05T06:43:03.588Z,7.67
2019-03-05T06:45:32.308Z,9.27
2019-03-05T06:48:00.982Z,8.20
2019-03-05T06:50:30.123Z,7.37
2019-03-05T06:52:58.783Z,7.77
2019-03-05T06:55:27.454Z,9.87
2019-03-05T06:57:58.458Z,9.73
2019-03-05T07:00:36.662Z,9.17
2019-03-05T07:03:07.694Z,9.00
2019-03-05T07:06:12.603Z,9.87
2019-03-05T07:08:47.191Z,9.97
2019-03-05T07:11:36.937Z,10.33
2019-03-05T07:14:23.671Z,13.00
2019-03-05T07:17:07.336Z,10.80
2019-03-05T07:19:44.922Z,10.70
2019-03-05T07:22:22.879Z,13.33
2019-03-05T07:24:51.826Z,11.07
2019-03-05T07:27:23.811Z,13.30
2019-03-05T07:29:53.081Z,13.90
2019-03-05T07:32:21.781Z,11.93
2019-03-05T07:34:52.264Z,13.17
2019-03-05T07:37:20.927Z,12.23
2019-03-05T07:39:49.689Z,17.57
2019-03-05T07:42:18.384Z,13.03
2019-03-05T07:44:47.588Z,12.63
2019-03-05T07:47:16.412Z,12.77
2019-03-05T07:49:45.105Z,12.50
2019-03-05T07:52:13.956Z,11.70
2019-03-05T07:54:44.206Z,12.33
2019-03-05T07:57:12.938Z,14.20
2019-03-05T07:59:41.596Z,13.37
2019-03-05T08:02:12.364Z,12.73
2019-03-05T08:04:41.085Z,10.50
2019-03-05T08:07:09.906Z,10.30
2019-03-05T08:09:39.108Z,10.43
2019-03-05T08:12:19.761Z,13.90
2019-03-05T08:15:03.523Z,11.97
2019-03-05T08:17:32.340Z,10.80
2019-03-05T08:20:02.741Z,12.90
2019-03-05T08:22:31.532Z,11.63
2019-03-05T08:25:00.354Z,11.57
2019-03-05T08:27:29.125Z,11.30
2019-03-05T08:29:57.902Z,11.17
2019-03-05T08:32:26.621Z,11.60
2019-03-05T08:34:58.477Z,12.33
2019-03-05T08:37:27.589Z,11.30
2019-03-05T08:39:56.509Z,11.43
2019-03-05T08:42:26.875Z,11.70
2019-03-05T08:44:55.676Z,10.87
2019-03-05T08:47:24.344Z,16.40
2019-03-05T08:49:53.072Z,12.67
2019-03-05T08:52:22.071Z,18.97
2019-03-05T08:54:50.752Z,11.70
2019-03-05T08:57:19.444Z,13.30
2019-03-05T08:59:48.167Z,10.53
2019-03-05T09:02:16.833Z,12.23
2019-03-05T09:04:45.511Z,11.05
2019-03-05T09:07:17.348Z,10.60
2019-03-05T09:09:46.103Z,10.50
2019-03-05T09:12:15.024Z,10.78
2019-03-05T09:14:43.799Z,10.13
2019-03-05T09:17:12.861Z,8.18
2019-03-05T09:19:41.588Z,9.15
2019-03-05T09:22:10.365Z,9.38
2019-03-05T09:24:39.144Z,10.00
2019-03-05T09:27:07.890Z,8.83
2019-03-05T09:29:36.639Z,9.50
2019-03-05T09:32:05.403Z,8.98
2019-03-05T09:34:34.301Z,14.95
2019-03-05T09:37:03.037Z,17.00
2019-03-05T09:39:31.888Z,9.03
2019-03-05T09:42:00.733Z,8.98
2019-03-05T09:44:29.578Z,8.03
2019-03-05T09:46:58.382Z,8.48
2019-03-05T09:49:27.040Z,10.75
2019-03-05T09:51:55.775Z,9.40
2019-03-05T09:54:24.467Z,7.92
2019-03-05T09:56:53.229Z,8.38
2019-03-05T09:59:22.144Z,8.58
2019-03-05T10:01:51.523Z,7.92
2019-03-05T10:04:20.287Z,5.58
2019-03-05T10:06:49.114Z,4.58
2019-03-05T10:09:19.750Z,3.60
2019-03-05T10:11:48.504Z,3.60
2019-03-05T10:14:17.403Z,3.80
2019-03-05T10:16:46.099Z,4.00
2019-03-05T10:19:14.898Z,5.12
2019-03-05T10:21:46.441Z,3.75
2019-03-05T10:24:14.724Z,3.98
2019-03-05T10:26:43.665Z,4.05
2019-03-05T10:29:12.461Z,3.80
2019-03-05T10:31:41.168Z,3.90
2019-03-05T10:34:13.196Z,3.87
2019-03-05T10:36:41.882Z,4.50
2019-03-05T10:39:29.927Z,4.67
2019-03-05T10:41:52.477Z,4.00
2019-03-05T10:44:21.209Z,4.30
2019-03-05T10:46:49.990Z,3.65
2019-03-05T10:49:18.684Z,4.28
2019-03-05T10:51:47.509Z,6.65
2019-03-05T10:54:16.267Z,4.40
2019-03-05T10:56:45.037Z,3.90
2019-03-05T10:59:13.873Z,4.15
2019-03-05T11:01:42.954Z,5.85
2019-03-05T11:04:11.679Z,5.05
2019-03-05T11:06:40.413Z,4.90
2019-03-05T11:09:09.912Z,4.67
2019-03-05T11:11:38.576Z,4.30
2019-03-05T11:14:07.837Z,5.15
2019-03-05T11:16:36.495Z,4.70
2019-03-05T11:19:05.584Z,3.67
2019-03-05T11:21:34.369Z,4.83
2019-03-05T11:24:03.358Z,4.42
2019-03-05T11:26:32.206Z,4.53
2019-03-05T11:29:00.851Z,5.10
2019-03-05T11:31:29.532Z,4.13
2019-03-05T11:33:58.322Z,5.28
2019-03-05T11:36:27.299Z,4.40
2019-03-05T11:38:56.079Z,4.17
2019-03-05T11:41:24.766Z,4.67
2019-03-05T11:43:54.922Z,4.77
2019-03-05T11:46:23.675Z,4.70
2019-03-05T11:48:52.402Z,5.40
2019-03-05T11:51:21.302Z,4.93
2019-03-05T11:53:50.166Z,5.23
2019-03-05T11:56:18.877Z,4.80
2019-03-05T11:58:47.619Z,5.77
2019-03-05T12:01:26.212Z,5.17
2019-03-05T12:03:55.014Z,5.03
2019-03-05T12:06:23.788Z,4.77
2019-03-05T12:08:52.778Z,5.10
2019-03-05T12:11:21.659Z,4.97
2019-03-05T12:13:50.527Z,4.47
2019-03-05T12:16:19.215Z,4.70
2019-03-05T12:18:47.924Z,4.27
2019-03-05T12:21:16.708Z,6.47
2019-03-05T12:23:47.346Z,4.80
2019-03-05T12:26:16.117Z,5.93
2019-03-05T12:28:44.882Z,4.73
2019-03-05T12:31:13.649Z,6.57
2019-03-05T12:33:42.419Z,11.00
2019-03-05T12:36:11.804Z,6.55
2019-03-05T12:38:40.764Z,7.00
2019-03-05T12:41:09.515Z,5.20
2019-03-05T12:43:38.261Z,5.47
2019-03-05T12:46:07.034Z,5.22
2019-03-05T12:48:40.031Z,4.37
2019-03-05T12:51:06.174Z,4.67
2019-03-05T12:53:35.011Z,6.08
2019-03-05T12:56:03.683Z,6.17
2019-03-05T12:58:32.596Z,8.20
2019-03-05T13:01:01.334Z,6.33
2019-03-05T13:03:30.663Z,5.67
2019-03-05T13:05:59.543Z,3.73
2019-03-05T13:08:28.805Z,4.20
2019-03-05T13:10:57.604Z,4.43
2019-03-05T13:13:26.440Z,4.40
2019-03-05T13:15:56.488Z,4.50
2019-03-05T13:18:26.913Z,3.63
2019-03-05T13:20:56.166Z,4.63
2019-03-05T13:23:25.038Z,4.00
2019-03-05T13:25:53.715Z,4.03
2019-03-05T13:28:22.432Z,3.60
2019-03-05T13:30:51.256Z,4.07
2019-03-05T13:33:19.903Z,4.10
2019-03-05T13:35:48.596Z,4.50
2019-03-05T13:38:17.288Z,4.97
2019-03-05T13:40:45.983Z,3.47
2019-03-05T13:43:14.703Z,3.63
2019-03-05T13:45:49.171Z,3.80
2019-03-05T13:48:29.305Z,4.50
2019-03-05T13:51:19.588Z,5.17
2019-03-05T13:54:17.858Z,4.40
2019-03-05T13:57:22.854Z,3.50
2019-03-05T13:59:51.631Z,3.70
2019-03-05T14:02:25.861Z,3.83
2019-03-05T14:05:06.215Z,4.20
2019-03-05T14:07:50.092Z,5.60
2019-03-05T14:10:18.940Z,4.30
2019-03-05T14:12:47.634Z,3.80
2019-03-05T14:15:17.020Z,4.50
2019-03-05T14:17:46.161Z,4.23
2019-03-05T14:20:17.970Z,4.03
2019-03-05T14:22:46.708Z,5.47
2019-03-05T14:25:16.462Z,5.37
2019-03-05T14:27:45.201Z,4.70
2019-03-05T14:30:20.979Z,5.30
2019-03-05T14:32:50.189Z,4.07
2019-03-05T14:35:20.085Z,4.20
2019-03-05T14:37:48.991Z,3.90
2019-03-05T14:40:24.479Z,4.97
2019-03-05T14:42:51.123Z,4.80
2019-03-05T14:45:22.772Z,5.10
2019-03-05T14:47:52.874Z,4.70
2019-03-05T14:50:21.586Z,5.30
2019-03-05T14:52:50.400Z,4.63
2019-03-05T14:55:19.127Z,4.73
2019-03-05T14:57:48.008Z,6.17
2019-03-05T15:00:19.384Z,5.13
2019-03-05T15:02:48.134Z,5.47
2019-03-05T15:05:16.989Z,5.90
2019-03-05T15:07:46.073Z,5.43
2019-03-05T15:10:14.832Z,6.50
2019-03-05T15:12:43.621Z,5.30
2019-03-05T15:15:21.190Z,5.90
2019-03-05T15:17:50.278Z,9.07
2019-03-05T15:20:19.015Z,6.90
2019-03-05T15:22:47.718Z,8.40
2019-03-05T15:25:17.506Z,7.00
2019-03-05T15:27:46.408Z,5.47
2019-03-05T15:30:20.481Z,5.57
2019-03-05T15:32:49.234Z,6.40
2019-03-05T15:35:17.987Z,10.40
2019-03-05T15:37:46.688Z,6.07
2019-03-05T15:40:17.186Z,6.00
2019-03-05T15:42:46.020Z,5.60
2019-03-05T15:45:24.969Z,8.10
2019-03-05T15:47:53.671Z,14.53
2019-03-05T15:50:25.199Z,8.83
2019-03-05T15:52:53.885Z,10.20
2019-03-05T15:55:22.592Z,8.53
2019-03-05T15:57:51.446Z,9.17
2019-03-05T16:00:29.188Z,8.13
2019-03-05T16:02:58.026Z,10.00
2019-03-05T16:05:30.368Z,10.17
2019-03-05T16:08:00.877Z,9.30
2019-03-05T16:10:31.891Z,8.50
2019-03-05T16:13:00.584Z,10.27
2019-03-05T16:15:29.303Z,11.07
2019-03-05T16:18:01.343Z,10.43
2019-03-05T16:20:29.778Z,9.00
2019-03-05T16:22:58.565Z,12.07
2019-03-05T16:25:27.266Z,11.63
2019-03-05T16:27:56.155Z,11.03
2019-03-05T16:30:47.373Z,11.80
2019-03-05T16:33:23.999Z,13.30
2019-03-05T16:36:03.437Z,12.10
2019-03-05T16:38:51.117Z,11.00
2019-03-05T16:41:34.056Z,9.10
2019-03-05T16:44:16.270Z,9.43
2019-03-05T16:46:58.755Z,8.83
2019-03-05T16:49:29.364Z,8.90
2019-03-05T16:52:02.388Z,7.73
2019-03-05T16:54:32.628Z,7.43
2019-03-05T16:57:08.925Z,7.87
2019-03-05T16:59:39.472Z,7.10
2019-03-05T17:02:16.802Z,6.43
2019-03-05T17:04:50.234Z,6.70
2019-03-05T17:07:22.911Z,8.63
2019-03-05T17:09:53.142Z,6.43
2019-03-05T17:12:21.890Z,6.50
2019-03-05T17:14:50.659Z,6.80
2019-03-05T17:17:19.391Z,5.87
2019-03-05T17:19:48.800Z,6.00
2019-03-05T17:22:17.521Z,5.53
2019-03-05T17:24:46.480Z,5.63
2019-03-05T17:27:15.155Z,6.23
2019-03-05T17:29:43.824Z,6.20
2019-03-05T17:32:12.821Z,6.50
2019-03-05T17:34:41.471Z,6.07
2019-03-05T17:37:10.175Z,6.63
2019-03-05T17:39:38.823Z,6.87
2019-03-05T17:42:07.509Z,6.43
2019-03-05T17:44:36.335Z,6.13
2019-03-05T17:47:05.086Z,5.87
2019-03-05T17:49:33.747Z,6.57
2019-03-05T17:52:02.582Z,6.17
2019-03-05T17:54:31.229Z,6.17
2019-03-05T17:57:00.092Z,6.07
2019-03-05T17:59:29.034Z,6.00
2019-03-05T18:01:57.727Z,6.80
2019-03-05T18:04:26.500Z,6.70
2019-03-05T18:06:55.179Z,6.63
2019-03-05T18:09:23.845Z,6.80
2019-03-05T18:11:52.605Z,7.10
2019-03-05T18:14:21.291Z,7.03
2019-03-05T18:16:49.987Z,7.60
2019-03-05T18:19:18.662Z,8.40
2019-03-05T18:21:47.379Z,8.47
2019-03-05T18:24:16.044Z,8.60
2019-03-05T18:26:44.719Z,8.70
2019-03-05T18:29:13.462Z,8.73
2019-03-05T18:31:42.149Z,7.73
2019-03-05T18:34:10.936Z,7.63
2019-03-05T18:36:39.657Z,7.47
2019-03-05T18:39:08.648Z,7.13
2019-03-05T18:41:37.379Z,6.73
2019-03-05T18:44:06.151Z,7.50
2019-03-05T18:46:34.861Z,6.93
2019-03-05T18:49:03.720Z,7.97
2019-03-05T18:51:32.537Z,8.10
2019-03-05T18:54:01.242Z,7.73
2019-03-05T18:56:29.907Z,8.10
2019-03-05T18:58:58.587Z,8.60
2019-03-05T19:01:27.292Z,7.90
2019-03-05T19:03:55.998Z,7.40
2019-03-05T19:06:24.758Z,7.00
2019-03-05T19:08:53.427Z,7.43
2019-03-05T19:11:22.139Z,7.80
2019-03-05T19:13:50.811Z,7.00
2019-03-05T19:16:19.486Z,6.83
2019-03-05T19:18:48.149Z,7.53
2019-03-05T19:21:16.835Z,7.37
2019-03-05T19:23:45.562Z,7.40
2019-03-05T19:26:14.208Z,7.60
2019-03-05T19:28:42.924Z,8.00
2019-03-05T19:31:11.616Z,7.80
2019-03-05T19:33:40.303Z,7.30
2019-03-05T19:36:08.966Z,7.83
2019-03-05T19:38:37.649Z,7.37
2019-03-05T19:41:06.317Z,8.57
2019-03-05T19:43:34.990Z,7.83
2019-03-05T19:46:03.689Z,7.70
2019-03-05T19:48:32.333Z,7.67
2019-03-05T19:51:01.019Z,7.87
2019-03-05T19:53:29.703Z,8.00
2019-03-05T19:55:58.810Z,7.13
2019-03-05T19:58:27.474Z,7.57
2019-03-05T20:01:03.763Z,7.30
2019-03-05T20:03:32.499Z,8.00
2019-03-05T20:06:01.270Z,8.37
2019-03-05T20:08:39.152Z,7.63
2019-03-05T20:11:00.458Z,7.83
2019-03-05T20:13:29.218Z,8.00
2019-03-05T20:15:58.101Z,8.07
2019-03-05T20:18:26.845Z,8.13
2019-03-05T20:20:55.571Z,8.37
2019-03-05T20:23:24.712Z,7.80
2019-03-05T20:25:53.696Z,7.97
2019-03-05T20:28:22.359Z,7.90
2019-03-05T20:30:51.099Z,7.77
2019-03-05T20:33:19.799Z,7.90
2019-03-05T20:35:49.055Z,8.00
2019-03-05T20:38:17.728Z,8.20
2019-03-05T20:40:46.413Z,8.27
2019-03-05T20:43:16.117Z,7.83
2019-03-05T20:45:47.239Z,8.03
2019-03-05T20:48:16.206Z,8.13
2019-03-05T20:50:44.980Z,8.47
2019-03-05T20:53:13.652Z,7.83
2019-03-05T20:55:42.485Z,8.63
2019-03-05T20:58:11.184Z,8.10
2019-03-05T21:00:40.660Z,9.47
2019-03-05T21:03:10.777Z,7.63
2019-03-05T21:05:48.128Z,7.90
2019-03-05T21:08:16.829Z,8.03
2019-03-05T21:10:45.611Z,8.33
2019-03-05T21:13:16.383Z,7.80
2019-03-05T21:15:45.056Z,8.70
2019-03-05T21:18:15.343Z,8.00
2019-03-05T21:20:44.035Z,8.60
2019-03-05T21:23:12.698Z,7.80
2019-03-05T21:25:41.405Z,7.30
2019-03-05T21:28:10.107Z,6.73
2019-03-05T21:30:38.746Z,7.20
2019-03-05T21:33:07.449Z,7.43
2019-03-05T21:35:36.150Z,7.40
2019-03-05T21:38:04.815Z,7.80
2019-03-05T21:40:34.088Z,7.90
2019-03-05T21:43:02.883Z,7.13
2019-03-05T21:45:34.401Z,6.80
2019-03-05T21:48:03.662Z,7.50
2019-03-05T21:50:32.883Z,7.43
2019-03-05T21:53:01.778Z,7.00
2019-03-05T21:55:30.434Z,7.57
2019-03-05T21:57:59.105Z,7.23
2019-03-05T22:00:32.555Z,7.77
2019-03-05T22:03:02.264Z,6.80
2019-03-05T22:05:32.287Z,8.43
2019-03-05T22:08:00.913Z,10.43
2019-03-05T22:10:30.068Z,10.83
2019-03-05T22:12:58.859Z,9.97
2019-03-05T22:15:30.398Z,9.70
2019-03-05T22:17:59.062Z,11.10
2019-03-05T22:20:28.031Z,9.67
2019-03-05T22:22:57.087Z,8.67
2019-03-05T22:25:26.366Z,10.30
2019-03-05T22:27:55.066Z,9.60
2019-03-05T22:30:34.706Z,9.20
2019-03-05T22:33:03.367Z,9.27
2019-03-05T22:35:32.068Z,8.40
2019-03-05T22:38:00.766Z,7.87
2019-03-05T22:40:30.084Z,6.77
2019-03-05T22:42:58.729Z,6.50
2019-03-05T22:45:31.914Z,5.77
2019-03-05T22:48:00.616Z,7.13
2019-03-05T22:50:29.304Z,7.00
2019-03-05T22:52:57.965Z,8.00
2019-03-05T22:55:26.638Z,6.53
2019-03-05T22:57:55.590Z,6.67
2019-03-05T23:00:43.956Z,6.80
2019-03-05T23:03:15.354Z,6.87
2019-03-05T23:05:44.016Z,6.80
2019-03-05T23:08:12.673Z,7.27
2019-03-05T23:10:41.341Z,7.07
2019-03-05T23:13:10.103Z,7.03
2019-03-05T23:15:39.063Z,6.70
2019-03-05T23:18:07.723Z,7.73
2019-03-05T23:20:36.504Z,7.67
2019-03-05T23:23:05.270Z,7.97
2019-03-05T23:25:33.941Z,7.07
2019-03-05T23:28:02.601Z,7.27
2019-03-05T23:30:31.591Z,6.67
2019-03-05T23:33:00.248Z,7.73
2019-03-05T23:35:28.929Z,6.80
2019-03-05T23:37:57.808Z,7.10
2019-03-05T23:40:26.478Z,6.33
2019-03-05T23:42:55.200Z,6.60
2019-03-05T23:45:23.881Z,6.10
2019-03-05T23:47:52.534Z,6.30
2019-03-05T23:50:21.206Z,7.20
2019-03-05T23:52:49.918Z,6.53
2019-03-05T23:55:18.984Z,7.60
2019-03-05T23:57:47.726Z,7.60
